Time,TemperatureF,DewpointF,PressureIn,WindDirection,WindDirectionDegrees,WindSpeedMPH,WindSpeedGustMPH,Humidity,HourlyPrecipIn,Conditions,Clouds,dailyrainin,SoftwareType,DateUTC
2013-01-29 00:00:00,25.0,23.2,24.11,North,0,0.0,-999.0,93,0.00,,,0.00,,2013-01-29 08:00:00,
2013-01-29 01:00:00,25.0,23.2,24.11,North,0,0.0,-999.0,93,0.00,,,0.00,,2013-01-29 09:00:00,
2013-01-29 02:00:00,25.4,23.4,24.11,North,0,0.0,-999.0,92,0.00,,,0.00,,2013-01-29 10:00:00,
2013-01-29 03:00:00,25.6,23.6,24.11,North,0,0.0,-999.0,92,0.00,,,0.00,,2013-01-29 11:00:00,
2013-01-29 04:00:00,25.0,23.2,24.11,North,0,0.0,-999.0,93,0.00,,,0.00,,2013-01-29 12:00:00,
2013-01-29 05:00:00,24.5,23.0,24.11,North,0,0.0,-999.0,94,0.00,,,0.00,,2013-01-29 13:00:00,
2013-01-29 06:00:00,24.8,23.3,24.11,North,0,0.0,-999.0,94,0.00,,,0.00,,2013-01-29 14:00:00,
2013-01-29 07:07:00,24.8,23.3,24.11,North,0,0.0,-999.0,94,0.00,,,0.00,,2013-01-29 15:07:00,
2013-01-29 08:00:00,26.6,24.8,24.14,North,0,0.0,-999.0,93,0.00,,,0.00,,2013-01-29 16:00:00,
2013-01-29 09:06:00,28.8,25.4,24.14,North,0,0.0,-999.0,87,0.00,,,0.00,,2013-01-29 17:06:00,
2013-01-29 10:00:00,30.6,26.9,24.17,North,0,0.0,-999.0,86,0.00,,,0.00,,2013-01-29 18:00:00,
2013-01-29 11:06:00,31.0,27.3,24.17,North,0,0.0,-999.0,86,0.00,,,0.00,,2013-01-29 19:06:00,
2013-01-29 12:00:00,31.7,28.6,24.17,North,0,0.0,-999.0,88,0.00,,,0.00,,2013-01-29 20:00:00,
2013-01-29 13:06:00,32.0,29.3,24.17,North,0,0.0,-999.0,89,0.00,,,0.00,,2013-01-29 21:06:00,
2013-01-29 14:00:00,31.0,28.7,24.14,North,0,0.0,-999.0,91,0.00,,,0.00,,2013-01-29 22:00:00,
2013-01-29 15:06:00,32.0,30.1,24.14,North,0,0.0,-999.0,92,0.00,,,0.00,,2013-01-29 23:06:00,
2013-01-29 16:00:00,32.4,30.3,24.17,North,0,0.0,-999.0,92,0.00,,,0.00,,2013-01-30 00:00:00,
2013-01-29 17:06:00,31.3,29.4,24.17,North,0,0.0,-999.0,92,0.00,,,0.00,,2013-01-30 01:06:00,
2013-01-29 18:00:00,31.1,29.3,24.19,North,0,0.0,-999.0,93,0.00,,,0.00,,2013-01-30 02:00:00,
2013-01-29 19:00:00,30.6,29.1,24.21,North,0,0.0,-999.0,94,0.00,,,0.00,,2013-01-30 03:00:00,
2013-01-29 20:00:00,30.6,29.1,24.22,North,0,0.0,-999.0,94,0.00,,,0.00,,2013-01-30 04:00:00,
2013-01-29 21:00:00,31.0,29.4,24.23,North,0,0.0,-999.0,94,0.00,,,0.00,,2013-01-30 05:00:00,
2013-01-29 22:00:00,31.3,29.8,24.22,North,0,0.0,-999.0,94,0.00,,,0.00,,2013-01-30 06:00:00,
2013-01-29 23:00:00,31.3,29.8,24.24,North,0,0.0,-999.0,94,0.00,,,0.00,,2013-01-30 07:00:00,